sensor_id;sensor_type;location;lat;lon;timestamp;temperature;humidity
1988;DHT22;12775;46.994;15.498;2022-09-20T00:01:10;11.80;81.00
1988;DHT22;12775;46.994;15.498;2022-09-20T00:03:35;11.80;81.20
1988;DHT22;12775;46.994;15.498;2022-09-20T00:06:02;11.80;81.30
1988;DHT22;12775;46.994;15.498;2022-09-20T00:08:28;11.80;81.40
1988;DHT22;12775;46.994;15.498;2022-09-20T00:10:57;11.80;82.50
1988;DHT22;12775;46.994;15.498;2022-09-20T00:13:23;11.70;82.70
1988;DHT22;12775;46.994;15.498;2022-09-20T00:15:49;11.70;83.20
1988;DHT22;12775;46.994;15.498;2022-09-20T00:18:16;11.80;82.10
1988;DHT22;12775;46.994;15.498;2022-09-20T00:20:45;11.80;82.50
1988;DHT22;12775;46.994;15.498;2022-09-20T00:23:12;11.70;83.60
1988;DHT22;12775;46.994;15.498;2022-09-20T00:25:38;11.70;85.30
1988;DHT22;12775;46.994;15.498;2022-09-20T00:28:05;11.60;84.20
1988;DHT22;12775;46.994;15.498;2022-09-20T00:30:32;11.50;85.00
1988;DHT22;12775;46.994;15.498;2022-09-20T00:32:58;11.50;85.20
1988;DHT22;12775;46.994;15.498;2022-09-20T00:35:25;11.40;85.00
1988;DHT22;12775;46.994;15.498;2022-09-20T00:37:51;11.30;86.90
1988;DHT22;12775;46.994;15.498;2022-09-20T00:40:19;11.30;86.80
1988;DHT22;12775;46.994;15.498;2022-09-20T00:42:46;11.30;87.10
1988;DHT22;12775;46.994;15.498;2022-09-20T00:45:24;11.30;87.10
1988;DHT22;12775;46.994;15.498;2022-09-20T00:47:57;11.40;87.10
1988;DHT22;12775;46.994;15.498;2022-09-20T00:50:41;11.40;87.40
1988;DHT22;12775;46.994;15.498;2022-09-20T00:53:11;11.40;87.70
1988;DHT22;12775;46.994;15.498;2022-09-20T00:55:35;11.40;87.60
1988;DHT22;12775;46.994;15.498;2022-09-20T00:58:02;11.40;88.40
1988;DHT22;12775;46.994;15.498;2022-09-20T01:00:28;11.40;87.90
1988;DHT22;12775;46.994;15.498;2022-09-20T01:02:56;11.50;88.80
1988;DHT22;12775;46.994;15.498;2022-09-20T01:05:21;11.50;88.80
1988;DHT22;12775;46.994;15.498;2022-09-20T01:07:48;11.50;88.60
1988;DHT22;12775;46.994;15.498;2022-09-20T01:10:15;11.50;88.10
1988;DHT22;12775;46.994;15.498;2022-09-20T01:12:41;11.60;88.10
1988;DHT22;12775;46.994;15.498;2022-09-20T01:15:08;11.60;87.10
1988;DHT22;12775;46.994;15.498;2022-09-20T01:17:36;11.60;88.40
1988;DHT22;12775;46.994;15.498;2022-09-20T01:20:12;11.60;89.30
1988;DHT22;12775;46.994;15.498;2022-09-20T01:23:01;11.60;88.80
1988;DHT22;12775;46.994;15.498;2022-09-20T01:28:11;11.60;88.90
1988;DHT22;12775;46.994;15.498;2022-09-20T01:30:40;11.60;88.30
1988;DHT22;12775;46.994;15.498;2022-09-20T01:33:10;11.60;88.50
1988;DHT22;12775;46.994;15.498;2022-09-20T01:35:35;11.50;89.20
1988;DHT22;12775;46.994;15.498;2022-09-20T01:38:11;11.50;89.70
1988;DHT22;12775;46.994;15.498;2022-09-20T01:40:45;11.50;89.80
1988;DHT22;12775;46.994;15.498;2022-09-20T01:43:25;11.40;89.70
1988;DHT22;12775;46.994;15.498;2022-09-20T01:45:48;11.40;90.00
1988;DHT22;12775;46.994;15.498;2022-09-20T01:48:33;11.40;90.10
1988;DHT22;12775;46.994;15.498;2022-09-20T01:51:09;11.40;90.10
1988;DHT22;12775;46.994;15.498;2022-09-20T01:53:48;11.40;89.40
1988;DHT22;12775;46.994;15.498;2022-09-20T01:56:30;11.40;89.60
1988;DHT22;12775;46.994;15.498;2022-09-20T01:59:03;11.40;88.90
1988;DHT22;12775;46.994;15.498;2022-09-20T02:02:19;11.40;89.50
1988;DHT22;12775;46.994;15.498;2022-09-20T02:04:50;11.40;89.80
1988;DHT22;12775;46.994;15.498;2022-09-20T02:10:26;11.40;90.10
1988;DHT22;12775;46.994;15.498;2022-09-20T02:12:40;11.40;90.60
1988;DHT22;12775;46.994;15.498;2022-09-20T02:15:15;11.40;90.70
1988;DHT22;12775;46.994;15.498;2022-09-20T02:18:02;11.30;91.00
1988;DHT22;12775;46.994;15.498;2022-09-20T02:20:37;11.20;91.00
1988;DHT22;12775;46.994;15.498;2022-09-20T02:23:20;11.30;90.50
1988;DHT22;12775;46.994;15.498;2022-09-20T02:25:48;11.30;90.70
1988;DHT22;12775;46.994;15.498;2022-09-20T02:28:19;11.30;90.30
1988;DHT22;12775;46.994;15.498;2022-09-20T02:36:35;11.30;91.10
1988;DHT22;12775;46.994;15.498;2022-09-20T02:39:16;11.30;91.00
1988;DHT22;12775;46.994;15.498;2022-09-20T02:44:29;11.20;91.20
1988;DHT22;12775;46.994;15.498;2022-09-20T02:47:08;11.20;91.20
1988;DHT22;12775;46.994;15.498;2022-09-20T02:49:40;11.30;91.00
1988;DHT22;12775;46.994;15.498;2022-09-20T02:52:37;11.30;91.00
1988;DHT22;12775;46.994;15.498;2022-09-20T02:57:56;11.30;90.50
1988;DHT22;12775;46.994;15.498;2022-09-20T03:00:22;11.30;90.80
1988;DHT22;12775;46.994;15.498;2022-09-20T03:02:59;11.40;90.80
1988;DHT22;12775;46.994;15.498;2022-09-20T03:05:45;11.40;90.50
1988;DHT22;12775;46.994;15.498;2022-09-20T03:08:28;11.40;90.40
1988;DHT22;12775;46.994;15.498;2022-09-20T03:16:08;11.50;91.00
1988;DHT22;12775;46.994;15.498;2022-09-20T03:18:49;11.50;90.40
1988;DHT22;12775;46.994;15.498;2022-09-20T03:25:09;11.50;90.60
1988;DHT22;12775;46.994;15.498;2022-09-20T03:29:32;11.50;90.70
1988;DHT22;12775;46.994;15.498;2022-09-20T03:32:11;11.50;90.60
1988;DHT22;12775;46.994;15.498;2022-09-20T03:34:46;11.50;90.90
1988;DHT22;12775;46.994;15.498;2022-09-20T03:37:48;11.40;90.90
1988;DHT22;12775;46.994;15.498;2022-09-20T03:43:01;11.50;90.90
1988;DHT22;12775;46.994;15.498;2022-09-20T03:45:45;11.50;90.70
1988;DHT22;12775;46.994;15.498;2022-09-20T03:51:03;11.50;91.10
1988;DHT22;12775;46.994;15.498;2022-09-20T03:53:51;11.50;91.00
1988;DHT22;12775;46.994;15.498;2022-09-20T03:56:43;11.50;90.90
1988;DHT22;12775;46.994;15.498;2022-09-20T04:00:20;11.50;90.80
1988;DHT22;12775;46.994;15.498;2022-09-20T04:02:27;11.50;91.20
1988;DHT22;12775;46.994;15.498;2022-09-20T04:04:53;11.40;91.30
1988;DHT22;12775;46.994;15.498;2022-09-20T04:07:41;11.40;91.70
1988;DHT22;12775;46.994;15.498;2022-09-20T04:10:15;11.30;91.90
1988;DHT22;12775;46.994;15.498;2022-09-20T04:12:48;11.30;91.90
1988;DHT22;12775;46.994;15.498;2022-09-20T04:15:21;11.30;91.90
1988;DHT22;12775;46.994;15.498;2022-09-20T04:18:22;11.30;91.80
1988;DHT22;12775;46.994;15.498;2022-09-20T04:20:33;11.30;91.60
1988;DHT22;12775;46.994;15.498;2022-09-20T04:22:58;11.30;91.60
1988;DHT22;12775;46.994;15.498;2022-09-20T04:25:26;11.30;91.90
1988;DHT22;12775;46.994;15.498;2022-09-20T04:27:55;11.30;92.20
1988;DHT22;12775;46.994;15.498;2022-09-20T04:30:21;11.30;91.90
1988;DHT22;12775;46.994;15.498;2022-09-20T04:32:57;11.40;92.00
1988;DHT22;12775;46.994;15.498;2022-09-20T04:38:03;11.40;92.00
1988;DHT22;12775;46.994;15.498;2022-09-20T04:40:58;11.40;92.30
1988;DHT22;12775;46.994;15.498;2022-09-20T04:43:40;11.30;92.30
1988;DHT22;12775;46.994;15.498;2022-09-20T04:46:03;11.30;92.30
1988;DHT22;12775;46.994;15.498;2022-09-20T04:48:37;11.30;92.60
1988;DHT22;12775;46.994;15.498;2022-09-20T04:53:43;11.30;92.60
1988;DHT22;12775;46.994;15.498;2022-09-20T04:56:27;11.30;93.00
1988;DHT22;12775;46.994;15.498;2022-09-20T04:58:59;11.30;92.90
1988;DHT22;12775;46.994;15.498;2022-09-20T05:07:02;11.20;92.90
1988;DHT22;12775;46.994;15.498;2022-09-20T05:09:54;11.20;92.80
1988;DHT22;12775;46.994;15.498;2022-09-20T05:12:29;11.20;92.70
1988;DHT22;12775;46.994;15.498;2022-09-20T05:15:16;11.20;92.40
1988;DHT22;12775;46.994;15.498;2022-09-20T05:17:49;11.30;92.00
1988;DHT22;12775;46.994;15.498;2022-09-20T05:20:20;11.20;91.70
1988;DHT22;12775;46.994;15.498;2022-09-20T05:31:58;11.30;92.20
1988;DHT22;12775;46.994;15.498;2022-09-20T05:36:57;11.10;92.70
1988;DHT22;12775;46.994;15.498;2022-09-20T05:39:29;11.10;93.20
1988;DHT22;12775;46.994;15.498;2022-09-20T05:41:57;11.10;93.50
1988;DHT22;12775;46.994;15.498;2022-09-20T05:44:30;11.10;93.60
1988;DHT22;12775;46.994;15.498;2022-09-20T05:49:51;11.20;94.80
1988;DHT22;12775;46.994;15.498;2022-09-20T05:52:30;11.20;94.70
1988;DHT22;12775;46.994;15.498;2022-09-20T05:55:03;11.20;94.90
1988;DHT22;12775;46.994;15.498;2022-09-20T05:57:30;11.20;94.80
1988;DHT22;12775;46.994;15.498;2022-09-20T06:00:06;11.20;95.30
1988;DHT22;12775;46.994;15.498;2022-09-20T06:02:34;11.20;95.20
1988;DHT22;12775;46.994;15.498;2022-09-20T06:10:28;11.30;96.10
1988;DHT22;12775;46.994;15.498;2022-09-20T06:15:44;11.30;96.50
1988;DHT22;12775;46.994;15.498;2022-09-20T06:18:20;11.40;97.20
1988;DHT22;12775;46.994;15.498;2022-09-20T06:21:01;11.30;97.70
1988;DHT22;12775;46.994;15.498;2022-09-20T06:23:27;11.40;98.50
1988;DHT22;12775;46.994;15.498;2022-09-20T06:25:58;11.40;99.30
1988;DHT22;12775;46.994;15.498;2022-09-20T06:28:23;11.50;99.40
1988;DHT22;12775;46.994;15.498;2022-09-20T06:30:50;11.50;99.50
1988;DHT22;12775;46.994;15.498;2022-09-20T06:33:18;11.60;99.80
1988;DHT22;12775;46.994;15.498;2022-09-20T06:35:54;11.50;99.70
1988;DHT22;12775;46.994;15.498;2022-09-20T06:38:44;11.60;99.80
1988;DHT22;12775;46.994;15.498;2022-09-20T06:41:19;11.60;99.30
1988;DHT22;12775;46.994;15.498;2022-09-20T06:43:51;11.70;98.60
1988;DHT22;12775;46.994;15.498;2022-09-20T06:46:18;11.70;98.60
1988;DHT22;12775;46.994;15.498;2022-09-20T06:48:45;11.80;98.50
1988;DHT22;12775;46.994;15.498;2022-09-20T06:51:12;11.70;98.40
1988;DHT22;12775;46.994;15.498;2022-09-20T06:53:39;11.80;99.10
1988;DHT22;12775;46.994;15.498;2022-09-20T06:56:07;11.90;98.60
1988;DHT22;12775;46.994;15.498;2022-09-20T06:58:33;12.00;99.00
1988;DHT22;12775;46.994;15.498;2022-09-20T07:00:59;12.00;99.50
1988;DHT22;12775;46.994;15.498;2022-09-20T07:03:26;12.10;99.70
1988;DHT22;12775;46.994;15.498;2022-09-20T07:05:52;12.20;99.90
1988;DHT22;12775;46.994;15.498;2022-09-20T07:08:19;12.30;99.50
1988;DHT22;12775;46.994;15.498;2022-09-20T07:10:46;12.30;98.80
1988;DHT22;12775;46.994;15.498;2022-09-20T07:13:12;12.40;99.40
1988;DHT22;12775;46.994;15.498;2022-09-20T07:15:39;12.50;99.60
1988;DHT22;12775;46.994;15.498;2022-09-20T07:18:06;12.60;99.10
1988;DHT22;12775;46.994;15.498;2022-09-20T07:20:32;12.70;98.20
1988;DHT22;12775;46.994;15.498;2022-09-20T07:22:59;12.80;99.20
1988;DHT22;12775;46.994;15.498;2022-09-20T07:25:25;13.00;99.90
1988;DHT22;12775;46.994;15.498;2022-09-20T07:27:52;13.10;96.30
1988;DHT22;12775;46.994;15.498;2022-09-20T07:30:19;13.20;97.80
1988;DHT22;12775;46.994;15.498;2022-09-20T07:32:45;13.40;97.90
1988;DHT22;12775;46.994;15.498;2022-09-20T07:35:12;13.60;99.90
1988;DHT22;12775;46.994;15.498;2022-09-20T07:37:38;13.80;97.00
1988;DHT22;12775;46.994;15.498;2022-09-20T07:40:08;14.10;99.00
1988;DHT22;12775;46.994;15.498;2022-09-20T07:42:34;14.20;98.10
1988;DHT22;12775;46.994;15.498;2022-09-20T07:45:01;14.30;98.40
1988;DHT22;12775;46.994;15.498;2022-09-20T07:47:28;14.40;98.50
1988;DHT22;12775;46.994;15.498;2022-09-20T07:49:56;14.60;97.80
1988;DHT22;12775;46.994;15.498;2022-09-20T07:52:23;14.80;98.00
1988;DHT22;12775;46.994;15.498;2022-09-20T07:54:49;14.70;97.90
1988;DHT22;12775;46.994;15.498;2022-09-20T07:57:16;14.80;96.80
1988;DHT22;12775;46.994;15.498;2022-09-20T07:59:43;15.00;97.50
1988;DHT22;12775;46.994;15.498;2022-09-20T08:02:13;15.10;97.50
1988;DHT22;12775;46.994;15.498;2022-09-20T08:04:39;15.20;95.70
1988;DHT22;12775;46.994;15.498;2022-09-20T08:07:06;15.30;95.20
1988;DHT22;12775;46.994;15.498;2022-09-20T08:09:33;15.40;94.60
1988;DHT22;12775;46.994;15.498;2022-09-20T08:11:59;15.40;94.40
1988;DHT22;12775;46.994;15.498;2022-09-20T08:14:26;15.50;93.20
1988;DHT22;12775;46.994;15.498;2022-09-20T08:16:52;15.50;94.00
1988;DHT22;12775;46.994;15.498;2022-09-20T08:19:20;15.50;91.10
1988;DHT22;12775;46.994;15.498;2022-09-20T08:21:46;15.50;90.90
1988;DHT22;12775;46.994;15.498;2022-09-20T08:24:12;15.50;90.60
1988;DHT22;12775;46.994;15.498;2022-09-20T08:26:39;15.50;90.80
1988;DHT22;12775;46.994;15.498;2022-09-20T08:29:05;15.60;92.10
1988;DHT22;12775;46.994;15.498;2022-09-20T08:31:32;15.60;91.30
1988;DHT22;12775;46.994;15.498;2022-09-20T08:34:00;15.70;91.50
1988;DHT22;12775;46.994;15.498;2022-09-20T08:36:28;15.80;91.90
1988;DHT22;12775;46.994;15.498;2022-09-20T08:38:55;15.70;89.00
1988;DHT22;12775;46.994;15.498;2022-09-20T08:41:29;15.70;86.80
1988;DHT22;12775;46.994;15.498;2022-09-20T08:43:54;15.80;89.50
1988;DHT22;12775;46.994;15.498;2022-09-20T08:46:22;15.80;90.30
1988;DHT22;12775;46.994;15.498;2022-09-20T08:48:47;15.80;88.30
1988;DHT22;12775;46.994;15.498;2022-09-20T08:51:14;16.00;90.10
1988;DHT22;12775;46.994;15.498;2022-09-20T08:53:43;16.10;91.80
1988;DHT22;12775;46.994;15.498;2022-09-20T08:56:08;16.20;90.50
1988;DHT22;12775;46.994;15.498;2022-09-20T08:58:35;16.40;88.80
1988;DHT22;12775;46.994;15.498;2022-09-20T09:01:02;16.40;83.00
1988;DHT22;12775;46.994;15.498;2022-09-20T09:03:28;16.60;89.30
1988;DHT22;12775;46.994;15.498;2022-09-20T09:05:54;16.70;88.90
1988;DHT22;12775;46.994;15.498;2022-09-20T09:08:26;16.90;86.50
1988;DHT22;12775;46.994;15.498;2022-09-20T09:10:55;17.00;85.00
1988;DHT22;12775;46.994;15.498;2022-09-20T09:13:24;17.10;78.50
1988;DHT22;12775;46.994;15.498;2022-09-20T09:15:52;17.00;79.00
1988;DHT22;12775;46.994;15.498;2022-09-20T09:18:16;17.00;82.00
1988;DHT22;12775;46.994;15.498;2022-09-20T09:20:43;17.00;81.30
1988;DHT22;12775;46.994;15.498;2022-09-20T09:23:18;17.00;79.30
1988;DHT22;12775;46.994;15.498;2022-09-20T09:25:38;17.00;83.00
1988;DHT22;12775;46.994;15.498;2022-09-20T09:28:14;17.00;75.40
1988;DHT22;12775;46.994;15.498;2022-09-20T09:30:42;17.00;74.60
1988;DHT22;12775;46.994;15.498;2022-09-20T09:36:05;17.10;83.00
1988;DHT22;12775;46.994;15.498;2022-09-20T09:38:33;17.40;80.60
1988;DHT22;12775;46.994;15.498;2022-09-20T09:40:59;17.50;81.20
1988;DHT22;12775;46.994;15.498;2022-09-20T09:43:26;17.70;77.60
1988;DHT22;12775;46.994;15.498;2022-09-20T09:45:52;17.90;78.10
1988;DHT22;12775;46.994;15.498;2022-09-20T09:48:22;18.10;78.50
1988;DHT22;12775;46.994;15.498;2022-09-20T09:50:46;18.20;75.00
1988;DHT22;12775;46.994;15.498;2022-09-20T09:53:17;18.30;77.10
1988;DHT22;12775;46.994;15.498;2022-09-20T09:55:58;18.40;74.00
1988;DHT22;12775;46.994;15.498;2022-09-20T09:58:24;18.30;72.90
1988;DHT22;12775;46.994;15.498;2022-09-20T10:00:47;18.40;74.60
1988;DHT22;12775;46.994;15.498;2022-09-20T10:03:18;18.50;76.30
1988;DHT22;12775;46.994;15.498;2022-09-20T10:06:06;18.60;74.20
1988;DHT22;12775;46.994;15.498;2022-09-20T10:08:54;18.40;71.40
1988;DHT22;12775;46.994;15.498;2022-09-20T10:11:22;18.40;70.20
1988;DHT22;12775;46.994;15.498;2022-09-20T10:13:59;18.30;70.10
1988;DHT22;12775;46.994;15.498;2022-09-20T10:16:45;18.30;72.50
1988;DHT22;12775;46.994;15.498;2022-09-20T10:19:09;18.30;66.10
1988;DHT22;12775;46.994;15.498;2022-09-20T10:21:55;18.30;67.10
1988;DHT22;12775;46.994;15.498;2022-09-20T10:24:29;18.30;70.30
1988;DHT22;12775;46.994;15.498;2022-09-20T10:27:07;18.70;74.60
1988;DHT22;12775;46.994;15.498;2022-09-20T10:32:27;18.80;68.00
1988;DHT22;12775;46.994;15.498;2022-09-20T10:35:04;18.70;69.20
1988;DHT22;12775;46.994;15.498;2022-09-20T10:40:15;19.00;69.60
1988;DHT22;12775;46.994;15.498;2022-09-20T10:42:39;19.30;67.10
1988;DHT22;12775;46.994;15.498;2022-09-20T10:45:12;19.30;69.60
1988;DHT22;12775;46.994;15.498;2022-09-20T10:50:23;19.70;65.40
1988;DHT22;12775;46.994;15.498;2022-09-20T10:53:01;19.60;61.30
1988;DHT22;12775;46.994;15.498;2022-09-20T10:55:31;19.80;66.30
1988;DHT22;12775;46.994;15.498;2022-09-20T11:00:34;20.40;68.30
1988;DHT22;12775;46.994;15.498;2022-09-20T11:03:21;20.60;71.60
1988;DHT22;12775;46.994;15.498;2022-09-20T11:05:51;20.80;70.40
1988;DHT22;12775;46.994;15.498;2022-09-20T11:08:12;20.90;67.70
1988;DHT22;12775;46.994;15.498;2022-09-20T11:10:49;21.30;70.60
1988;DHT22;12775;46.994;15.498;2022-09-20T11:13:18;21.30;70.60
1988;DHT22;12775;46.994;15.498;2022-09-20T11:15:44;21.40;75.30
1988;DHT22;12775;46.994;15.498;2022-09-20T11:18:11;21.50;68.60
1988;DHT22;12775;46.994;15.498;2022-09-20T11:20:41;21.70;70.30
1988;DHT22;12775;46.994;15.498;2022-09-20T11:23:12;21.80;65.80
1988;DHT22;12775;46.994;15.498;2022-09-20T11:25:38;21.50;63.20
1988;DHT22;12775;46.994;15.498;2022-09-20T11:28:12;21.10;63.20
1988;DHT22;12775;46.994;15.498;2022-09-20T11:30:39;20.60;59.00
1988;DHT22;12775;46.994;15.498;2022-09-20T11:33:06;20.60;59.00
1988;DHT22;12775;46.994;15.498;2022-09-20T11:35:41;20.30;61.60
1988;DHT22;12775;46.994;15.498;2022-09-20T11:38:17;20.00;58.40
1988;DHT22;12775;46.994;15.498;2022-09-20T11:40:42;19.80;61.00
1988;DHT22;12775;46.994;15.498;2022-09-20T11:43:08;19.70;61.50
1988;DHT22;12775;46.994;15.498;2022-09-20T11:45:35;19.50;61.30
1988;DHT22;12775;46.994;15.498;2022-09-20T11:48:05;19.50;65.60
1988;DHT22;12775;46.994;15.498;2022-09-20T11:55:56;19.40;60.90
1988;DHT22;12775;46.994;15.498;2022-09-20T11:58:20;19.40;63.80
1988;DHT22;12775;46.994;15.498;2022-09-20T12:00:49;19.40;62.60
1988;DHT22;12775;46.994;15.498;2022-09-20T12:03:28;19.30;62.70
1988;DHT22;12775;46.994;15.498;2022-09-20T12:05:57;19.40;64.30
1988;DHT22;12775;46.994;15.498;2022-09-20T12:08:25;19.10;60.80
1988;DHT22;12775;46.994;15.498;2022-09-20T12:10:58;19.10;61.80
1988;DHT22;12775;46.994;15.498;2022-09-20T12:13:24;19.00;61.70
1988;DHT22;12775;46.994;15.498;2022-09-20T12:16:08;19.10;60.90
1988;DHT22;12775;46.994;15.498;2022-09-20T12:18:37;19.00;60.80
1988;DHT22;12775;46.994;15.498;2022-09-20T12:21:05;19.00;62.90
1988;DHT22;12775;46.994;15.498;2022-09-20T12:26:35;18.80;57.50
1988;DHT22;12775;46.994;15.498;2022-09-20T12:29:03;18.70;61.40
1988;DHT22;12775;46.994;15.498;2022-09-20T12:31:46;18.60;62.40
1988;DHT22;12775;46.994;15.498;2022-09-20T12:34:30;18.70;64.00
1988;DHT22;12775;46.994;15.498;2022-09-20T12:37:15;18.70;62.60
1988;DHT22;12775;46.994;15.498;2022-09-20T12:39:35;18.70;65.70
1988;DHT22;12775;46.994;15.498;2022-09-20T12:47:29;18.50;64.30
1988;DHT22;12775;46.994;15.498;2022-09-20T12:49:56;18.40;63.40
1988;DHT22;12775;46.994;15.498;2022-09-20T12:52:36;18.40;62.90
1988;DHT22;12775;46.994;15.498;2022-09-20T12:55:08;18.60;65.60
1988;DHT22;12775;46.994;15.498;2022-09-20T12:57:34;18.60;64.20
1988;DHT22;12775;46.994;15.498;2022-09-20T13:00:00;18.60;62.60
1988;DHT22;12775;46.994;15.498;2022-09-20T13:07:39;18.40;61.90
1988;DHT22;12775;46.994;15.498;2022-09-20T13:10:15;18.40;62.10
1988;DHT22;12775;46.994;15.498;2022-09-20T13:12:42;18.20;61.00
1988;DHT22;12775;46.994;15.498;2022-09-20T13:15:10;18.30;62.40
1988;DHT22;12775;46.994;15.498;2022-09-20T13:17:35;18.20;61.90
1988;DHT22;12775;46.994;15.498;2022-09-20T13:20:02;18.20;64.60
1988;DHT22;12775;46.994;15.498;2022-09-20T13:22:34;18.20;64.70
1988;DHT22;12775;46.994;15.498;2022-09-20T13:25:00;18.20;61.20
1988;DHT22;12775;46.994;15.498;2022-09-20T13:27:28;18.00;62.50
1988;DHT22;12775;46.994;15.498;2022-09-20T13:29:53;18.00;61.60
1988;DHT22;12775;46.994;15.498;2022-09-20T13:32:22;18.00;63.00
1988;DHT22;12775;46.994;15.498;2022-09-20T13:37:26;18.10;65.00
1988;DHT22;12775;46.994;15.498;2022-09-20T13:39:53;18.10;65.90
1988;DHT22;12775;46.994;15.498;2022-09-20T13:42:20;18.20;64.10
1988;DHT22;12775;46.994;15.498;2022-09-20T13:44:47;18.20;64.10
1988;DHT22;12775;46.994;15.498;2022-09-20T13:47:22;18.20;63.10
1988;DHT22;12775;46.994;15.498;2022-09-20T13:49:48;18.20;64.70
1988;DHT22;12775;46.994;15.498;2022-09-20T13:52:23;18.30;65.60
1988;DHT22;12775;46.994;15.498;2022-09-20T13:54:48;18.40;66.40
1988;DHT22;12775;46.994;15.498;2022-09-20T13:57:20;18.40;64.20
1988;DHT22;12775;46.994;15.498;2022-09-20T13:59:45;18.40;64.90
1988;DHT22;12775;46.994;15.498;2022-09-20T14:02:19;18.50;63.90
1988;DHT22;12775;46.994;15.498;2022-09-20T14:04:44;18.50;65.00
1988;DHT22;12775;46.994;15.498;2022-09-20T14:07:11;18.60;63.10
1988;DHT22;12775;46.994;15.498;2022-09-20T14:09:38;18.30;62.40
1988;DHT22;12775;46.994;15.498;2022-09-20T14:12:04;18.40;66.60
1988;DHT22;12775;46.994;15.498;2022-09-20T14:14:32;18.60;64.90
1988;DHT22;12775;46.994;15.498;2022-09-20T14:16:59;18.70;67.70
1988;DHT22;12775;46.994;15.498;2022-09-20T14:19:27;18.80;62.70
1988;DHT22;12775;46.994;15.498;2022-09-20T14:21:52;18.90;60.90
1988;DHT22;12775;46.994;15.498;2022-09-20T14:24:23;18.80;60.60
1988;DHT22;12775;46.994;15.498;2022-09-20T14:27:19;18.90;65.10
1988;DHT22;12775;46.994;15.498;2022-09-20T14:29:46;19.00;66.80
1988;DHT22;12775;46.994;15.498;2022-09-20T14:32:20;19.20;67.40
1988;DHT22;12775;46.994;15.498;2022-09-20T14:34:58;19.20;63.60
1988;DHT22;12775;46.994;15.498;2022-09-20T14:37:31;19.10;61.30
1988;DHT22;12775;46.994;15.498;2022-09-20T14:40:00;19.20;61.80
1988;DHT22;12775;46.994;15.498;2022-09-20T14:42:33;19.20;61.10
1988;DHT22;12775;46.994;15.498;2022-09-20T14:44:57;19.10;59.30
1988;DHT22;12775;46.994;15.498;2022-09-20T14:47:27;19.00;59.80
1988;DHT22;12775;46.994;15.498;2022-09-20T14:49:52;19.00;59.00
1988;DHT22;12775;46.994;15.498;2022-09-20T14:52:28;19.10;60.60
1988;DHT22;12775;46.994;15.498;2022-09-20T14:54:57;18.90;59.60
1988;DHT22;12775;46.994;15.498;2022-09-20T14:57:23;18.80;58.90
1988;DHT22;12775;46.994;15.498;2022-09-20T14:59:53;18.70;58.70
1988;DHT22;12775;46.994;15.498;2022-09-20T15:02:16;18.60;59.00
1988;DHT22;12775;46.994;15.498;2022-09-20T15:04:57;18.50;60.00
1988;DHT22;12775;46.994;15.498;2022-09-20T15:07:24;18.50;58.50
1988;DHT22;12775;46.994;15.498;2022-09-20T15:09:50;18.40;60.30
1988;DHT22;12775;46.994;15.498;2022-09-20T15:12:18;18.20;58.20
1988;DHT22;12775;46.994;15.498;2022-09-20T15:14:44;18.10;58.90
1988;DHT22;12775;46.994;15.498;2022-09-20T15:17:16;18.00;60.00
1988;DHT22;12775;46.994;15.498;2022-09-20T15:19:42;18.00;60.40
1988;DHT22;12775;46.994;15.498;2022-09-20T15:22:09;17.90;60.30
1988;DHT22;12775;46.994;15.498;2022-09-20T15:24:35;18.00;60.60
1988;DHT22;12775;46.994;15.498;2022-09-20T15:27:02;17.80;58.50
1988;DHT22;12775;46.994;15.498;2022-09-20T15:29:29;17.70;59.60
1988;DHT22;12775;46.994;15.498;2022-09-20T15:31:55;17.50;60.10
1988;DHT22;12775;46.994;15.498;2022-09-20T15:34:22;17.50;59.20
1988;DHT22;12775;46.994;15.498;2022-09-20T15:36:48;17.30;60.10
1988;DHT22;12775;46.994;15.498;2022-09-20T15:39:15;17.30;60.90
1988;DHT22;12775;46.994;15.498;2022-09-20T15:41:42;17.20;61.30
1988;DHT22;12775;46.994;15.498;2022-09-20T15:44:09;17.20;61.30
1988;DHT22;12775;46.994;15.498;2022-09-20T15:46:36;17.10;61.40
1988;DHT22;12775;46.994;15.498;2022-09-20T15:49:03;16.90;62.30
1988;DHT22;12775;46.994;15.498;2022-09-20T15:51:29;17.00;62.10
1988;DHT22;12775;46.994;15.498;2022-09-20T15:53:56;17.10;63.10
1988;DHT22;12775;46.994;15.498;2022-09-20T15:56:24;17.00;61.80
1988;DHT22;12775;46.994;15.498;2022-09-20T15:58:50;17.00;62.00
1988;DHT22;12775;46.994;15.498;2022-09-20T16:01:17;16.90;61.80
1988;DHT22;12775;46.994;15.498;2022-09-20T16:03:43;16.80;62.40
1988;DHT22;12775;46.994;15.498;2022-09-20T16:06:09;16.80;61.50
1988;DHT22;12775;46.994;15.498;2022-09-20T16:08:38;16.50;62.40
1988;DHT22;12775;46.994;15.498;2022-09-20T16:11:04;16.40;62.90
1988;DHT22;12775;46.994;15.498;2022-09-20T16:13:30;16.30;62.30
1988;DHT22;12775;46.994;15.498;2022-09-20T16:15:58;16.40;63.90
1988;DHT22;12775;46.994;15.498;2022-09-20T16:18:23;16.30;64.10
1988;DHT22;12775;46.994;15.498;2022-09-20T16:21:07;16.30;63.20
1988;DHT22;12775;46.994;15.498;2022-09-20T16:23:33;16.00;63.30
1988;DHT22;12775;46.994;15.498;2022-09-20T16:26:00;15.90;63.70
1988;DHT22;12775;46.994;15.498;2022-09-20T16:28:27;15.90;63.70
1988;DHT22;12775;46.994;15.498;2022-09-20T16:30:56;15.70;63.10
1988;DHT22;12775;46.994;15.498;2022-09-20T16:33:22;15.50;62.60
1988;DHT22;12775;46.994;15.498;2022-09-20T16:35:49;15.50;63.70
1988;DHT22;12775;46.994;15.498;2022-09-20T16:38:15;15.40;64.10
1988;DHT22;12775;46.994;15.498;2022-09-20T16:40:42;15.40;64.10
1988;DHT22;12775;46.994;15.498;2022-09-20T16:43:08;15.50;65.90
1988;DHT22;12775;46.994;15.498;2022-09-20T16:45:35;15.50;65.00
1988;DHT22;12775;46.994;15.498;2022-09-20T16:48:02;15.50;65.60
1988;DHT22;12775;46.994;15.498;2022-09-20T16:50:28;15.60;66.00
1988;DHT22;12775;46.994;15.498;2022-09-20T16:52:55;15.60;65.50
1988;DHT22;12775;46.994;15.498;2022-09-20T16:55:21;15.60;66.10
1988;DHT22;12775;46.994;15.498;2022-09-20T16:57:48;15.70;67.00
1988;DHT22;12775;46.994;15.498;2022-09-20T17:00:15;15.70;66.90
1988;DHT22;12775;46.994;15.498;2022-09-20T17:02:42;15.80;66.80
1988;DHT22;12775;46.994;15.498;2022-09-20T17:05:08;15.80;67.20
1988;DHT22;12775;46.994;15.498;2022-09-20T17:07:35;15.90;67.60
1988;DHT22;12775;46.994;15.498;2022-09-20T17:10:02;15.90;67.00
1988;DHT22;12775;46.994;15.498;2022-09-20T17:12:28;15.90;67.20
1988;DHT22;12775;46.994;15.498;2022-09-20T17:14:55;16.00;67.80
1988;DHT22;12775;46.994;15.498;2022-09-20T17:17:22;16.00;66.30
1988;DHT22;12775;46.994;15.498;2022-09-20T17:19:49;15.90;66.20
1988;DHT22;12775;46.994;15.498;2022-09-20T17:22:16;15.80;65.70
1988;DHT22;12775;46.994;15.498;2022-09-20T17:24:44;15.80;66.20
1988;DHT22;12775;46.994;15.498;2022-09-20T17:27:11;15.80;66.00
1988;DHT22;12775;46.994;15.498;2022-09-20T17:29:39;15.70;65.00
1988;DHT22;12775;46.994;15.498;2022-09-20T17:32:06;15.60;65.60